Skip Navigation LinksHome page > Weather > Current weather Skip Navigation Links

Current Weather

Honolulu Intl, Honolulu

For information only: do not use for flight planning or navigation.
Latest weather
Observation time Tuesday, September 2, 2014 5:53 PM HST
Local time Tuesday, September 2, 2014 6:35 PM HST
Flight conditions Visual Meteorological Conditions
Winds
Wind direction East (80°)
Wind speed 8 mph
Visibility 10 mi.
Sky condition
Ceiling unlimited
Cloud layer few clouds 3,000 ft.
Cloud layer scattered clouds 5,000 ft.
Temperature 84°F
Dewpoint 68°F
Altimeter 29.97 in.Hg
Derived measurements
Relative humidity 59%
Heat index 87°F
Density altitude 1871 ft.
Sea-level pressure 29.96 in.Hg
Remarks
Automated weather observing station with precipitation discriminator.
METAR PHNL 030353Z 08007KT 10SM FEW030 SCT050 29/20 A2997 RMK AO2 SLP147 T02890200

Settings

Location code

InnerDrive.Weather 4.0.5356.0 Release CLR 4.0.30319.34014
Copyright ©2014 Inner Drive Technology. All rights reserved. Portions Copyright ©1986-2014 David Braverman.

Find weather

Site navigation


Skip Navigation Links

Place info

Page info

PayPal - The safer, easier way to pay online!

Return home.

Copyright ©2014 Inner Drive Technology. Purveyors of fine, hand-crafted computer software. Page printed 2014-09-03T04:35:00 UTC.